Strona główna
METAR-TAF:

METAR-TAF

Lotnisko :

Port lotniczy Nakhon Ratchasima

Nakhon Ratchasima, Tajlandia

Szerokość geograficzna: 14-56-58N, Długość geograficzna: 102-18-45E, wysokość: 233 m

Aktualna obserwacja pogody

Raport powstał 23 minut temu, godzina 05:00 UTC
Wiatr 12 kt od północny wschód, zmienny między północno-północny zachód i wschód
Temperatura 24°C
Wilgotność 41%
Ciśnienie 1019 hPa
Widzialność: 9000 m

METAR: VTUQ 070500Z 05012KT 340V080 9000 NSC 24/10 Q1019 NOSIG

czas: 12:23 (05:23 UTC)

Prognoza

Raport powstał 6 godziny i 23 minut temu, godzina 23:00 UTC
Prognoza ważna od 07 godzina 00 UTC do 07 godzina 24 UTC
Wiatr 10 kt od północny wschód
Widzialność: 9000 m
Mało chmury na wysokości 3500 ft

TAF: VTUQ 062300Z 0700/0724 04010KT 9000 FEW035

Obserwacja i prognoza pogody dla ponad 4000 lotnisk (raport METAR i TAF).

Dostępne stacje oznaczono żółtymi i czerwonymi punktami na mapie.

Najedź kursorem aby zobaczyć nazwę stacji.

Kliknij aby zobaczyć obserwacje i prognozy pogody.

Aby zmienić mapę: kliknij na zielony przycisk z czarnym krzyżykiem, aby powiększyć; na zielony przycisk z myślnikiem, aby pomniejszyć; na zielone strzałki, aby przejść do map sąsiednich.


METAR-TAF: